Dry Fork, Utah
Current Conditions -  °F | °C
As of 1:53 AM on Tuesday 21 Oct 2014 (Local Time) from KVEL Reporting Station
Clear Clear  
Wind Chill: 45°   Ceiling: Unl
Heat Index: 47°   Visibility: 10mi
Dew Point: 38°   Wind: 5mph
Humidity: 71%   Direction: 280°W
Pressure: 30.04"   Gusts: NA
Location:  40.1055°N, 109.498°W
Report Text: KVEL 210753Z AUTO 28004KT 10SM CLR 08/03 A3004 RMK AO2 SLP135 T00830033
Loading
Personal Weather Stations






























Interactive Weather Map
Tropical Storm Tracking
New forecast layout! Learn more

10-Day Weather Forecast

Advertisements
Track Severe Weather on mobile